Aviation Digital Data Service (ADDS)

Output produced by METARs form (2055 UTC 23 April 2018)
found at http://aviationweather.gov/adds/metars/
 
KDFW 232050Z 2321/2424 33011KT P6SM SCT045 
     TEMPO 2321/2323 BKN045 
     FM240200 36006KT P6SM FEW250 
     FM241700 05006KT P6SM FEW250